Search for the current weather situation

Metar

Metar
TNCM 211000Z 08012KT 9999 SCT017 25/19 Q1020 A30013
Decoded Metar

TAF

TAF
TNCM 211000Z 08012KT 9999 SCT017 25/19 Q1020 A30013
Decoded TAF
Top